Аэропорт: Курск-Восточный . Курск

ICAO: UUOK

METAR:
2024-05-18 17:00:00
UUOK 181700Z VRB01MPS CAVOK 14/10 Q1017 R30/090060 NOSIG RMK QFE744/0992
TAF:
Информация по данной станции не доступна